Pagrindinis puslapis
METAR-TAF:

METAR-TAF

Oro uostai :

Vagaro oro uostas

Siorvaguras, Farerai, Danija

platuma: 62-04N, ilguma: 007-17W, Aukštis: 85 m

Dabartinis oras

Ataskaita buvo paskelbta 27 minutes, ne 01:20 UTC
Vėjas 25 kt iš Vakarų su gūsio iki 37 kt
Temperatūra 5°C
Drėgmė 60%
Slėgis 994 hPa
Matomumas 10 km arba daugiau

METAR: EKVG 280120Z AUTO 27025G37KT 9999 OVC038/// 05/M02 Q0994 RMK OVC061/// WIND SKEID 28030G40KT

Laikas: 02:47 (01:47 UTC)

Prognozė

Ataskaita buvo paskelbta 11 valandos ir 34 minutes, ne 14:13 UTC
Prognozė galioja nuo 27 metu 15 UTC su 27 metu 21 UTC
Vėjas 30 kt iš Vakarų su gūsio iki 44 kt
Matomumas 10 km arba daugiau
Su prošvaistėmis ne aukštis 2000 ft
Laikinai
nuo 27 metu 15 UTC su 27 metu 21 UTC
Matomumas: 3000 m
Su prošvaistėmis ne aukštis 1200 ft, Liūtiniai kamuoliniai debesys.
lietus,

TAF: EKVG 271413Z 2715/2721 27030G44KT 9999 BKN020 TEMPO 2715/2721 3000 SHRA BKN012CB

Orai ataskaitas ir orų prognozės (METAR, TAF).

turimą stotys yra geltonos ir raudonos taškus žemėlapyje.

Perkelti pele per norėdami pamatyti stoties vardą.

Tada spustelėkite, norėdami matyti oro stebėjimo ir prognozės.

Norėdami pakeisti žemėlapį: spustelėkite ant žalios mygtukų su juodo kryžiaus žemyn,; žalią mygtuką su brūkšneliu, jei norite nutolinti; arba žalių rodyklių gretimoms žemėlapius.


METAR-TAF: